sensor_id;sensor_type;location;lat;lon;timestamp;temperature;humidity
44747;DHT22;30472;49.490;10.972;2023-06-22T00:00:50;18.30;99.90
44747;DHT22;30472;49.490;10.972;2023-06-22T00:03:20;18.40;99.90
44747;DHT22;30472;49.490;10.972;2023-06-22T00:05:47;18.40;99.90
44747;DHT22;30472;49.490;10.972;2023-06-22T00:08:13;18.40;99.90
44747;DHT22;30472;49.490;10.972;2023-06-22T00:10:39;18.40;99.90
44747;DHT22;30472;49.490;10.972;2023-06-22T00:13:06;18.40;99.90
44747;DHT22;30472;49.490;10.972;2023-06-22T00:15:32;18.30;99.90
44747;DHT22;30472;49.490;10.972;2023-06-22T00:17:58;18.30;99.90
44747;DHT22;30472;49.490;10.972;2023-06-22T00:20:24;18.20;99.90
44747;DHT22;30472;49.490;10.972;2023-06-22T00:22:57;18.20;99.90
44747;DHT22;30472;49.490;10.972;2023-06-22T00:25:23;18.10;99.90
44747;DHT22;30472;49.490;10.972;2023-06-22T00:27:49;18.10;99.90
44747;DHT22;30472;49.490;10.972;2023-06-22T00:30:18;18.00;99.90
44747;DHT22;30472;49.490;10.972;2023-06-22T00:32:45;17.90;99.90
44747;DHT22;30472;49.490;10.972;2023-06-22T00:35:12;17.90;99.90
44747;DHT22;30472;49.490;10.972;2023-06-22T00:37:38;17.80;99.90
44747;DHT22;30472;49.490;10.972;2023-06-22T00:40:10;17.80;99.90
44747;DHT22;30472;49.490;10.972;2023-06-22T00:42:38;17.80;99.90
44747;DHT22;30472;49.490;10.972;2023-06-22T00:45:05;17.70;99.90
44747;DHT22;30472;49.490;10.972;2023-06-22T00:47:30;17.60;99.90
44747;DHT22;30472;49.490;10.972;2023-06-22T00:49:56;17.60;99.90
44747;DHT22;30472;49.490;10.972;2023-06-22T00:52:23;17.50;99.90
44747;DHT22;30472;49.490;10.972;2023-06-22T00:54:52;17.50;99.90
44747;DHT22;30472;49.490;10.972;2023-06-22T00:57:19;17.50;99.90
44747;DHT22;30472;49.490;10.972;2023-06-22T00:59:45;17.40;99.90
44747;DHT22;30472;49.490;10.972;2023-06-22T01:02:13;17.40;99.90
44747;DHT22;30472;49.490;10.972;2023-06-22T01:04:39;17.30;99.90
44747;DHT22;30472;49.490;10.972;2023-06-22T01:07:20;17.40;99.90
44747;DHT22;30472;49.490;10.972;2023-06-22T01:10:13;17.40;99.90
44747;DHT22;30472;49.490;10.972;2023-06-22T01:12:45;17.30;99.90
44747;DHT22;30472;49.490;10.972;2023-06-22T01:15:29;17.30;99.90
44747;DHT22;30472;49.490;10.972;2023-06-22T01:17:57;17.30;99.90
44747;DHT22;30472;49.490;10.972;2023-06-22T01:20:25;17.30;99.90
44747;DHT22;30472;49.490;10.972;2023-06-22T01:23:07;17.30;99.90
44747;DHT22;30472;49.490;10.972;2023-06-22T01:25:46;17.40;99.90
44747;DHT22;30472;49.490;10.972;2023-06-22T01:28:30;17.40;99.90
44747;DHT22;30472;49.490;10.972;2023-06-22T01:30:58;17.40;99.90
44747;DHT22;30472;49.490;10.972;2023-06-22T01:33:33;17.30;99.90
44747;DHT22;30472;49.490;10.972;2023-06-22T01:36:00;17.30;99.90
44747;DHT22;30472;49.490;10.972;2023-06-22T01:38:28;17.30;99.90
44747;DHT22;30472;49.490;10.972;2023-06-22T01:40:54;17.20;99.90
44747;DHT22;30472;49.490;10.972;2023-06-22T01:43:21;17.20;99.90
44747;DHT22;30472;49.490;10.972;2023-06-22T01:45:48;17.20;99.90
44747;DHT22;30472;49.490;10.972;2023-06-22T01:48:14;17.10;99.90
44747;DHT22;30472;49.490;10.972;2023-06-22T01:50:40;17.10;99.90
44747;DHT22;30472;49.490;10.972;2023-06-22T01:53:06;17.00;99.90
44747;DHT22;30472;49.490;10.972;2023-06-22T01:55:32;17.10;99.90
44747;DHT22;30472;49.490;10.972;2023-06-22T01:57:57;17.00;99.90
44747;DHT22;30472;49.490;10.972;2023-06-22T02:00:25;17.00;99.90
44747;DHT22;30472;49.490;10.972;2023-06-22T02:02:57;17.00;99.90
44747;DHT22;30472;49.490;10.972;2023-06-22T02:05:26;16.90;99.90
44747;DHT22;30472;49.490;10.972;2023-06-22T02:08:08;16.90;99.90
44747;DHT22;30472;49.490;10.972;2023-06-22T02:10:36;16.80;99.90
44747;DHT22;30472;49.490;10.972;2023-06-22T02:13:06;16.80;99.90
44747;DHT22;30472;49.490;10.972;2023-06-22T02:15:32;16.90;99.90
44747;DHT22;30472;49.490;10.972;2023-06-22T02:17:58;16.80;99.90
44747;DHT22;30472;49.490;10.972;2023-06-22T02:20:24;16.80;99.90
44747;DHT22;30472;49.490;10.972;2023-06-22T02:22:50;16.70;99.90
44747;DHT22;30472;49.490;10.972;2023-06-22T02:25:16;16.70;99.90
44747;DHT22;30472;49.490;10.972;2023-06-22T02:27:41;16.70;99.90
44747;DHT22;30472;49.490;10.972;2023-06-22T02:30:10;16.70;99.90
44747;DHT22;30472;49.490;10.972;2023-06-22T02:32:36;16.60;99.90
44747;DHT22;30472;49.490;10.972;2023-06-22T02:35:01;16.60;99.90
44747;DHT22;30472;49.490;10.972;2023-06-22T02:37:31;16.60;99.90
44747;DHT22;30472;49.490;10.972;2023-06-22T02:39:56;16.70;99.90
44747;DHT22;30472;49.490;10.972;2023-06-22T02:42:22;16.70;99.90
44747;DHT22;30472;49.490;10.972;2023-06-22T02:44:48;16.80;99.90
44747;DHT22;30472;49.490;10.972;2023-06-22T02:47:13;16.90;99.90
44747;DHT22;30472;49.490;10.972;2023-06-22T02:49:39;16.80;99.90
44747;DHT22;30472;49.490;10.972;2023-06-22T02:52:05;16.80;99.90
44747;DHT22;30472;49.490;10.972;2023-06-22T02:54:30;16.80;99.90
44747;DHT22;30472;49.490;10.972;2023-06-22T02:56:56;16.80;99.90
44747;DHT22;30472;49.490;10.972;2023-06-22T02:59:21;16.90;99.90
44747;DHT22;30472;49.490;10.972;2023-06-22T03:01:50;16.80;99.90
44747;DHT22;30472;49.490;10.972;2023-06-22T03:04:16;16.90;99.90
44747;DHT22;30472;49.490;10.972;2023-06-22T03:06:41;16.90;99.90
44747;DHT22;30472;49.490;10.972;2023-06-22T03:09:07;16.80;99.90
44747;DHT22;30472;49.490;10.972;2023-06-22T03:11:34;16.90;99.90
44747;DHT22;30472;49.490;10.972;2023-06-22T03:14:02;16.80;99.90
44747;DHT22;30472;49.490;10.972;2023-06-22T03:16:28;16.80;99.90
44747;DHT22;30472;49.490;10.972;2023-06-22T03:18:54;16.70;99.90
44747;DHT22;30472;49.490;10.972;2023-06-22T03:21:22;16.70;99.90
44747;DHT22;30472;49.490;10.972;2023-06-22T03:23:48;16.70;99.90
44747;DHT22;30472;49.490;10.972;2023-06-22T03:26:16;16.70;99.90
44747;DHT22;30472;49.490;10.972;2023-06-22T03:28:42;16.70;99.90
44747;DHT22;30472;49.490;10.972;2023-06-22T03:31:08;16.80;99.90
44747;DHT22;30472;49.490;10.972;2023-06-22T03:33:33;16.80;99.90
44747;DHT22;30472;49.490;10.972;2023-06-22T03:35:59;16.80;99.90
44747;DHT22;30472;49.490;10.972;2023-06-22T03:38:24;16.80;99.90
44747;DHT22;30472;49.490;10.972;2023-06-22T03:40:50;16.90;99.90
44747;DHT22;30472;49.490;10.972;2023-06-22T03:43:15;16.90;99.90
44747;DHT22;30472;49.490;10.972;2023-06-22T03:45:41;16.90;99.90
44747;DHT22;30472;49.490;10.972;2023-06-22T03:48:06;17.00;99.90
44747;DHT22;30472;49.490;10.972;2023-06-22T03:50:32;17.00;99.90
44747;DHT22;30472;49.490;10.972;2023-06-22T03:52:58;17.10;99.90
44747;DHT22;30472;49.490;10.972;2023-06-22T03:55:23;17.10;99.90
44747;DHT22;30472;49.490;10.972;2023-06-22T03:57:49;17.10;99.90
44747;DHT22;30472;49.490;10.972;2023-06-22T04:00:15;17.10;99.90
44747;DHT22;30472;49.490;10.972;2023-06-22T04:02:43;17.10;99.90
44747;DHT22;30472;49.490;10.972;2023-06-22T04:05:09;17.20;99.90
44747;DHT22;30472;49.490;10.972;2023-06-22T04:07:35;17.20;99.90
44747;DHT22;30472;49.490;10.972;2023-06-22T04:10:03;17.20;99.90
44747;DHT22;30472;49.490;10.972;2023-06-22T04:12:28;17.30;99.90
44747;DHT22;30472;49.490;10.972;2023-06-22T04:14:54;17.30;99.90
44747;DHT22;30472;49.490;10.972;2023-06-22T04:17:19;17.40;99.90
44747;DHT22;30472;49.490;10.972;2023-06-22T04:19:45;17.40;99.90
44747;DHT22;30472;49.490;10.972;2023-06-22T04:22:11;17.50;99.90
44747;DHT22;30472;49.490;10.972;2023-06-22T04:24:37;17.50;99.90
44747;DHT22;30472;49.490;10.972;2023-06-22T04:27:03;17.60;99.90
44747;DHT22;30472;49.490;10.972;2023-06-22T04:29:32;17.70;99.90
44747;DHT22;30472;49.490;10.972;2023-06-22T04:31:58;17.60;99.90
44747;DHT22;30472;49.490;10.972;2023-06-22T04:34:24;17.70;99.90
44747;DHT22;30472;49.490;10.972;2023-06-22T04:36:53;17.80;99.90
44747;DHT22;30472;49.490;10.972;2023-06-22T04:39:19;17.80;99.90
44747;DHT22;30472;49.490;10.972;2023-06-22T04:41:45;17.90;99.90
44747;DHT22;30472;49.490;10.972;2023-06-22T04:44:12;17.90;99.90
44747;DHT22;30472;49.490;10.972;2023-06-22T04:46:38;17.90;99.90
44747;DHT22;30472;49.490;10.972;2023-06-22T04:49:05;18.00;99.90
44747;DHT22;30472;49.490;10.972;2023-06-22T04:51:32;18.10;99.90
44747;DHT22;30472;49.490;10.972;2023-06-22T04:53:57;18.10;99.90
44747;DHT22;30472;49.490;10.972;2023-06-22T04:56:26;18.20;99.90
44747;DHT22;30472;49.490;10.972;2023-06-22T04:58:53;18.20;99.90
44747;DHT22;30472;49.490;10.972;2023-06-22T05:01:25;18.40;99.90
44747;DHT22;30472;49.490;10.972;2023-06-22T05:03:51;18.50;99.90
44747;DHT22;30472;49.490;10.972;2023-06-22T05:06:24;18.60;99.90
44747;DHT22;30472;49.490;10.972;2023-06-22T05:08:52;18.70;99.90
44747;DHT22;30472;49.490;10.972;2023-06-22T05:11:18;18.80;99.90
44747;DHT22;30472;49.490;10.972;2023-06-22T05:13:44;18.90;99.90
44747;DHT22;30472;49.490;10.972;2023-06-22T05:16:09;19.00;99.90
44747;DHT22;30472;49.490;10.972;2023-06-22T05:18:35;19.10;99.90
44747;DHT22;30472;49.490;10.972;2023-06-22T05:21:01;19.20;99.90
44747;DHT22;30472;49.490;10.972;2023-06-22T05:23:28;19.30;99.90
44747;DHT22;30472;49.490;10.972;2023-06-22T05:25:53;19.40;99.90
44747;DHT22;30472;49.490;10.972;2023-06-22T05:28:20;19.50;99.90
44747;DHT22;30472;49.490;10.972;2023-06-22T05:30:48;19.50;99.90
44747;DHT22;30472;49.490;10.972;2023-06-22T05:33:13;19.70;99.90
44747;DHT22;30472;49.490;10.972;2023-06-22T05:35:39;19.80;99.90
44747;DHT22;30472;49.490;10.972;2023-06-22T05:38:04;19.90;99.90
44747;DHT22;30472;49.490;10.972;2023-06-22T05:40:30;19.90;99.90
44747;DHT22;30472;49.490;10.972;2023-06-22T05:42:55;20.00;99.90
44747;DHT22;30472;49.490;10.972;2023-06-22T05:45:21;20.10;99.90
44747;DHT22;30472;49.490;10.972;2023-06-22T05:47:47;20.10;99.90
44747;DHT22;30472;49.490;10.972;2023-06-22T05:50:12;20.30;99.90
44747;DHT22;30472;49.490;10.972;2023-06-22T05:52:38;20.30;99.90
44747;DHT22;30472;49.490;10.972;2023-06-22T05:55:03;20.50;99.90
44747;DHT22;30472;49.490;10.972;2023-06-22T05:57:29;20.60;99.90
44747;DHT22;30472;49.490;10.972;2023-06-22T05:59:54;20.70;99.90
44747;DHT22;30472;49.490;10.972;2023-06-22T06:02:20;20.70;99.90
44747;DHT22;30472;49.490;10.972;2023-06-22T06:04:46;20.80;99.90
44747;DHT22;30472;49.490;10.972;2023-06-22T06:07:11;21.00;99.90
44747;DHT22;30472;49.490;10.972;2023-06-22T06:09:37;21.20;99.90
44747;DHT22;30472;49.490;10.972;2023-06-22T06:12:02;21.30;99.90
44747;DHT22;30472;49.490;10.972;2023-06-22T06:14:28;21.40;99.90
44747;DHT22;30472;49.490;10.972;2023-06-22T06:16:54;21.50;99.90
44747;DHT22;30472;49.490;10.972;2023-06-22T06:19:19;21.90;99.90
44747;DHT22;30472;49.490;10.972;2023-06-22T06:21:45;22.40;99.90
44747;DHT22;30472;49.490;10.972;2023-06-22T06:24:11;23.10;99.90
44747;DHT22;30472;49.490;10.972;2023-06-22T06:26:37;23.50;99.90
44747;DHT22;30472;49.490;10.972;2023-06-22T06:29:03;23.90;99.90
44747;DHT22;30472;49.490;10.972;2023-06-22T06:31:28;24.50;99.90
44747;DHT22;30472;49.490;10.972;2023-06-22T06:33:55;24.40;99.90
44747;DHT22;30472;49.490;10.972;2023-06-22T06:36:20;24.70;99.90
44747;DHT22;30472;49.490;10.972;2023-06-22T06:38:46;24.80;99.90
44747;DHT22;30472;49.490;10.972;2023-06-22T06:41:15;25.10;99.90
44747;DHT22;30472;49.490;10.972;2023-06-22T06:43:41;25.50;99.90
44747;DHT22;30472;49.490;10.972;2023-06-22T06:46:08;25.50;99.90
44747;DHT22;30472;49.490;10.972;2023-06-22T06:48:34;26.00;99.90
44747;DHT22;30472;49.490;10.972;2023-06-22T06:51:00;26.90;99.90
44747;DHT22;30472;49.490;10.972;2023-06-22T06:53:26;27.40;99.90
44747;DHT22;30472;49.490;10.972;2023-06-22T06:55:52;27.30;99.90
44747;DHT22;30472;49.490;10.972;2023-06-22T06:58:17;27.00;99.90
44747;DHT22;30472;49.490;10.972;2023-06-22T07:00:43;27.00;99.90
44747;DHT22;30472;49.490;10.972;2023-06-22T07:03:09;27.50;99.90
44747;DHT22;30472;49.490;10.972;2023-06-22T07:05:35;27.70;99.90
44747;DHT22;30472;49.490;10.972;2023-06-22T07:08:01;28.20;99.90
44747;DHT22;30472;49.490;10.972;2023-06-22T07:10:26;28.10;99.90
44747;DHT22;30472;49.490;10.972;2023-06-22T07:12:52;28.00;99.90
44747;DHT22;30472;49.490;10.972;2023-06-22T07:15:18;28.60;99.90
44747;DHT22;30472;49.490;10.972;2023-06-22T07:17:43;28.30;99.90
44747;DHT22;30472;49.490;10.972;2023-06-22T07:20:09;28.10;99.90
44747;DHT22;30472;49.490;10.972;2023-06-22T07:22:37;28.60;99.90
44747;DHT22;30472;49.490;10.972;2023-06-22T07:25:03;29.30;99.90
44747;DHT22;30472;49.490;10.972;2023-06-22T07:27:43;29.40;99.90
44747;DHT22;30472;49.490;10.972;2023-06-22T07:30:10;29.50;99.90
44747;DHT22;30472;49.490;10.972;2023-06-22T07:32:36;29.90;99.90
44747;DHT22;30472;49.490;10.972;2023-06-22T07:35:02;29.40;99.90
44747;DHT22;30472;49.490;10.972;2023-06-22T07:37:28;29.70;99.90
44747;DHT22;30472;49.490;10.972;2023-06-22T07:39:55;29.70;99.90
44747;DHT22;30472;49.490;10.972;2023-06-22T07:42:24;29.50;99.90
44747;DHT22;30472;49.490;10.972;2023-06-22T07:44:50;29.70;99.90
44747;DHT22;30472;49.490;10.972;2023-06-22T07:47:16;29.60;99.90
44747;DHT22;30472;49.490;10.972;2023-06-22T07:49:44;29.90;99.90
44747;DHT22;30472;49.490;10.972;2023-06-22T07:52:10;30.20;99.90
44747;DHT22;30472;49.490;10.972;2023-06-22T07:54:36;31.00;99.90
44747;DHT22;30472;49.490;10.972;2023-06-22T07:57:02;30.90;99.90
44747;DHT22;30472;49.490;10.972;2023-06-22T07:59:27;31.10;99.90
44747;DHT22;30472;49.490;10.972;2023-06-22T08:01:53;31.10;99.90
44747;DHT22;30472;49.490;10.972;2023-06-22T08:04:19;31.20;99.90
44747;DHT22;30472;49.490;10.972;2023-06-22T08:06:44;31.60;99.90
44747;DHT22;30472;49.490;10.972;2023-06-22T08:09:10;32.00;99.90
44747;DHT22;30472;49.490;10.972;2023-06-22T08:11:35;32.20;99.90
44747;DHT22;30472;49.490;10.972;2023-06-22T08:14:01;31.40;99.90
44747;DHT22;30472;49.490;10.972;2023-06-22T08:16:26;31.70;99.90
44747;DHT22;30472;49.490;10.972;2023-06-22T08:18:52;32.20;99.90
44747;DHT22;30472;49.490;10.972;2023-06-22T08:21:17;32.80;99.90
44747;DHT22;30472;49.490;10.972;2023-06-22T08:23:43;33.10;99.90
44747;DHT22;30472;49.490;10.972;2023-06-22T08:26:08;32.40;99.90
44747;DHT22;30472;49.490;10.972;2023-06-22T08:28:34;32.70;99.90
44747;DHT22;30472;49.490;10.972;2023-06-22T08:31:01;33.00;99.90
44747;DHT22;30472;49.490;10.972;2023-06-22T08:33:27;33.70;99.90
44747;DHT22;30472;49.490;10.972;2023-06-22T08:35:57;33.60;99.90
44747;DHT22;30472;49.490;10.972;2023-06-22T08:38:23;33.40;99.90
44747;DHT22;30472;49.490;10.972;2023-06-22T08:40:48;33.00;99.90
44747;DHT22;30472;49.490;10.972;2023-06-22T08:43:14;33.10;99.90
44747;DHT22;30472;49.490;10.972;2023-06-22T08:45:40;32.70;99.90
44747;DHT22;30472;49.490;10.972;2023-06-22T08:48:05;33.10;99.90
44747;DHT22;30472;49.490;10.972;2023-06-22T08:50:31;32.80;99.90
44747;DHT22;30472;49.490;10.972;2023-06-22T08:52:56;33.30;99.90
44747;DHT22;30472;49.490;10.972;2023-06-22T08:55:22;33.10;99.90
44747;DHT22;30472;49.490;10.972;2023-06-22T08:57:47;32.70;99.90
44747;DHT22;30472;49.490;10.972;2023-06-22T09:00:13;32.70;99.90
44747;DHT22;30472;49.490;10.972;2023-06-22T09:02:44;32.90;99.90
44747;DHT22;30472;49.490;10.972;2023-06-22T09:05:10;33.90;99.90
44747;DHT22;30472;49.490;10.972;2023-06-22T09:07:35;33.90;99.90
44747;DHT22;30472;49.490;10.972;2023-06-22T09:10:01;34.00;99.90
44747;DHT22;30472;49.490;10.972;2023-06-22T09:12:28;33.70;99.90
44747;DHT22;30472;49.490;10.972;2023-06-22T09:14:55;33.80;99.90
44747;DHT22;30472;49.490;10.972;2023-06-22T09:17:22;34.10;99.90
44747;DHT22;30472;49.490;10.972;2023-06-22T09:19:47;34.20;99.90
44747;DHT22;30472;49.490;10.972;2023-06-22T09:22:14;34.20;99.90
44747;DHT22;30472;49.490;10.972;2023-06-22T09:24:39;33.50;99.90
44747;DHT22;30472;49.490;10.972;2023-06-22T09:27:05;33.60;99.90
44747;DHT22;30472;49.490;10.972;2023-06-22T09:29:30;33.70;99.90
44747;DHT22;30472;49.490;10.972;2023-06-22T09:31:59;33.90;99.90
44747;DHT22;30472;49.490;10.972;2023-06-22T09:34:25;34.20;99.90
44747;DHT22;30472;49.490;10.972;2023-06-22T09:36:51;33.40;99.90
44747;DHT22;30472;49.490;10.972;2023-06-22T09:39:18;32.90;99.90
44747;DHT22;30472;49.490;10.972;2023-06-22T09:41:43;33.20;99.90
44747;DHT22;30472;49.490;10.972;2023-06-22T09:44:09;33.40;99.90
44747;DHT22;30472;49.490;10.972;2023-06-22T09:46:34;32.80;99.90
44747;DHT22;30472;49.490;10.972;2023-06-22T09:49:00;32.90;99.90
44747;DHT22;30472;49.490;10.972;2023-06-22T09:51:26;33.40;99.90
44747;DHT22;30472;49.490;10.972;2023-06-22T09:53:51;33.80;99.90
44747;DHT22;30472;49.490;10.972;2023-06-22T09:56:18;33.30;99.90
44747;DHT22;30472;49.490;10.972;2023-06-22T09:58:46;32.80;99.90
44747;DHT22;30472;49.490;10.972;2023-06-22T10:01:12;33.10;99.90
44747;DHT22;30472;49.490;10.972;2023-06-22T10:03:39;33.40;99.90
44747;DHT22;30472;49.490;10.972;2023-06-22T10:06:06;33.00;99.90
44747;DHT22;30472;49.490;10.972;2023-06-22T10:08:31;33.20;99.90
44747;DHT22;30472;49.490;10.972;2023-06-22T10:10:57;33.30;99.90
44747;DHT22;30472;49.490;10.972;2023-06-22T10:13:22;33.30;99.90
44747;DHT22;30472;49.490;10.972;2023-06-22T10:15:48;32.70;99.90
44747;DHT22;30472;49.490;10.972;2023-06-22T10:18:17;33.10;99.90
44747;DHT22;30472;49.490;10.972;2023-06-22T10:20:43;33.10;99.90
44747;DHT22;30472;49.490;10.972;2023-06-22T10:23:08;33.00;99.90
44747;DHT22;30472;49.490;10.972;2023-06-22T10:25:34;33.60;99.90
44747;DHT22;30472;49.490;10.972;2023-06-22T10:27:59;33.80;99.90
44747;DHT22;30472;49.490;10.972;2023-06-22T10:30:25;34.00;99.90
44747;DHT22;30472;49.490;10.972;2023-06-22T10:32:51;33.20;99.90
44747;DHT22;30472;49.490;10.972;2023-06-22T10:35:16;33.60;99.90
44747;DHT22;30472;49.490;10.972;2023-06-22T10:37:46;33.40;99.90
44747;DHT22;30472;49.490;10.972;2023-06-22T10:40:13;33.30;99.90
44747;DHT22;30472;49.490;10.972;2023-06-22T10:42:40;33.00;99.90
44747;DHT22;30472;49.490;10.972;2023-06-22T10:45:07;33.30;99.90
44747;DHT22;30472;49.490;10.972;2023-06-22T10:47:33;33.30;99.90
44747;DHT22;30472;49.490;10.972;2023-06-22T10:49:59;33.50;99.90
44747;DHT22;30472;49.490;10.972;2023-06-22T10:52:24;33.50;99.90
44747;DHT22;30472;49.490;10.972;2023-06-22T10:54:50;34.20;99.90
44747;DHT22;30472;49.490;10.972;2023-06-22T10:57:16;34.40;99.90
44747;DHT22;30472;49.490;10.972;2023-06-22T10:59:41;34.20;99.90
44747;DHT22;30472;49.490;10.972;2023-06-22T11:02:07;34.40;99.90
44747;DHT22;30472;49.490;10.972;2023-06-22T11:04:32;34.40;99.90
44747;DHT22;30472;49.490;10.972;2023-06-22T11:06:58;33.80;99.90
44747;DHT22;30472;49.490;10.972;2023-06-22T11:09:23;34.40;99.90
44747;DHT22;30472;49.490;10.972;2023-06-22T11:11:51;34.50;99.90
44747;DHT22;30472;49.490;10.972;2023-06-22T11:14:19;34.70;99.90
44747;DHT22;30472;49.490;10.972;2023-06-22T11:16:44;34.60;99.90
44747;DHT22;30472;49.490;10.972;2023-06-22T11:19:12;34.50;99.90
44747;DHT22;30472;49.490;10.972;2023-06-22T11:21:37;34.80;99.90
44747;DHT22;30472;49.490;10.972;2023-06-22T11:24:03;34.60;99.90
44747;DHT22;30472;49.490;10.972;2023-06-22T11:26:29;34.80;99.90
44747;DHT22;30472;49.490;10.972;2023-06-22T11:28:55;34.70;99.90
44747;DHT22;30472;49.490;10.972;2023-06-22T11:31:20;35.00;99.90
44747;DHT22;30472;49.490;10.972;2023-06-22T11:33:46;35.40;99.90
44747;DHT22;30472;49.490;10.972;2023-06-22T11:36:13;35.10;99.90
44747;DHT22;30472;49.490;10.972;2023-06-22T11:38:39;35.20;99.90
44747;DHT22;30472;49.490;10.972;2023-06-22T11:41:06;35.00;99.90
44747;DHT22;30472;49.490;10.972;2023-06-22T11:43:32;34.90;99.90
44747;DHT22;30472;49.490;10.972;2023-06-22T11:45:57;35.10;99.90
44747;DHT22;30472;49.490;10.972;2023-06-22T11:48:24;35.00;99.90
44747;DHT22;30472;49.490;10.972;2023-06-22T11:50:50;35.30;99.90
44747;DHT22;30472;49.490;10.972;2023-06-22T11:53:16;35.40;99.90
44747;DHT22;30472;49.490;10.972;2023-06-22T11:55:43;35.20;99.90
44747;DHT22;30472;49.490;10.972;2023-06-22T11:58:08;35.00;99.90
44747;DHT22;30472;49.490;10.972;2023-06-22T12:00:34;35.00;99.90
44747;DHT22;30472;49.490;10.972;2023-06-22T12:03:00;34.70;99.90
44747;DHT22;30472;49.490;10.972;2023-06-22T12:05:25;35.30;99.90
44747;DHT22;30472;49.490;10.972;2023-06-22T12:07:53;34.80;99.90
44747;DHT22;30472;49.490;10.972;2023-06-22T12:10:20;35.40;99.90
44747;DHT22;30472;49.490;10.972;2023-06-22T12:12:46;35.50;99.90
44747;DHT22;30472;49.490;10.972;2023-06-22T12:15:11;35.40;99.90
44747;DHT22;30472;49.490;10.972;2023-06-22T12:17:37;34.80;99.90
44747;DHT22;30472;49.490;10.972;2023-06-22T12:20:03;34.90;99.90
44747;DHT22;30472;49.490;10.972;2023-06-22T12:22:32;34.30;99.90
44747;DHT22;30472;49.490;10.972;2023-06-22T12:24:57;34.20;99.90
44747;DHT22;30472;49.490;10.972;2023-06-22T12:27:23;33.90;99.90
44747;DHT22;30472;49.490;10.972;2023-06-22T12:29:48;33.80;99.90
44747;DHT22;30472;49.490;10.972;2023-06-22T12:32:14;33.90;99.90
44747;DHT22;30472;49.490;10.972;2023-06-22T12:34:42;34.20;99.90
44747;DHT22;30472;49.490;10.972;2023-06-22T12:37:08;34.30;99.90
44747;DHT22;30472;49.490;10.972;2023-06-22T12:39:33;33.80;99.90
44747;DHT22;30472;49.490;10.972;2023-06-22T12:41:59;33.80;99.90
44747;DHT22;30472;49.490;10.972;2023-06-22T12:44:25;34.20;99.90
44747;DHT22;30472;49.490;10.972;2023-06-22T12:46:50;34.10;99.90
44747;DHT22;30472;49.490;10.972;2023-06-22T12:49:16;35.00;99.90
44747;DHT22;30472;49.490;10.972;2023-06-22T12:51:43;35.10;99.90
44747;DHT22;30472;49.490;10.972;2023-06-22T12:54:08;35.10;99.90
44747;DHT22;30472;49.490;10.972;2023-06-22T12:56:35;34.90;99.90
44747;DHT22;30472;49.490;10.972;2023-06-22T12:59:00;34.50;99.90
44747;DHT22;30472;49.490;10.972;2023-06-22T13:01:28;35.00;99.90
44747;DHT22;30472;49.490;10.972;2023-06-22T13:03:55;35.20;99.90
44747;DHT22;30472;49.490;10.972;2023-06-22T13:06:21;35.00;99.90
44747;DHT22;30472;49.490;10.972;2023-06-22T13:08:47;34.90;99.90
44747;DHT22;30472;49.490;10.972;2023-06-22T13:11:12;34.60;99.90
44747;DHT22;30472;49.490;10.972;2023-06-22T13:13:38;34.20;99.90
44747;DHT22;30472;49.490;10.972;2023-06-22T13:16:04;34.20;99.90
44747;DHT22;30472;49.490;10.972;2023-06-22T13:18:30;35.00;99.90
44747;DHT22;30472;49.490;10.972;2023-06-22T13:20:55;35.10;99.90
44747;DHT22;30472;49.490;10.972;2023-06-22T13:23:21;35.80;99.90
44747;DHT22;30472;49.490;10.972;2023-06-22T13:25:47;36.00;99.90
44747;DHT22;30472;49.490;10.972;2023-06-22T13:28:13;35.60;99.90
44747;DHT22;30472;49.490;10.972;2023-06-22T13:30:40;35.80;99.90
44747;DHT22;30472;49.490;10.972;2023-06-22T13:33:06;35.90;99.90
44747;DHT22;30472;49.490;10.972;2023-06-22T13:35:31;35.70;99.90
44747;DHT22;30472;49.490;10.972;2023-06-22T13:37:57;35.40;99.90
44747;DHT22;30472;49.490;10.972;2023-06-22T13:40:22;35.50;99.90
44747;DHT22;30472;49.490;10.972;2023-06-22T13:42:48;35.40;99.90
44747;DHT22;30472;49.490;10.972;2023-06-22T13:45:14;35.00;99.90
44747;DHT22;30472;49.490;10.972;2023-06-22T13:47:41;34.50;99.90
44747;DHT22;30472;49.490;10.972;2023-06-22T13:50:07;34.60;99.90
44747;DHT22;30472;49.490;10.972;2023-06-22T13:52:33;34.90;99.90
44747;DHT22;30472;49.490;10.972;2023-06-22T13:54:59;35.00;99.90
44747;DHT22;30472;49.490;10.972;2023-06-22T13:57:24;35.20;99.90
44747;DHT22;30472;49.490;10.972;2023-06-22T13:59:50;35.20;99.90
44747;DHT22;30472;49.490;10.972;2023-06-22T14:02:15;35.50;99.90
44747;DHT22;30472;49.490;10.972;2023-06-22T14:04:41;35.00;99.90
44747;DHT22;30472;49.490;10.972;2023-06-22T14:07:06;35.10;99.90
44747;DHT22;30472;49.490;10.972;2023-06-22T14:09:32;35.70;99.90
44747;DHT22;30472;49.490;10.972;2023-06-22T14:11:57;36.20;99.90
44747;DHT22;30472;49.490;10.972;2023-06-22T14:14:23;36.20;99.20
44747;DHT22;30472;49.490;10.972;2023-06-22T14:16:49;36.10;99.90
44747;DHT22;30472;49.490;10.972;2023-06-22T14:19:17;35.60;99.70
44747;DHT22;30472;49.490;10.972;2023-06-22T14:21:43;35.20;99.70
44747;DHT22;30472;49.490;10.972;2023-06-22T14:24:09;35.00;99.80
44747;DHT22;30472;49.490;10.972;2023-06-22T14:26:34;35.10;99.90
44747;DHT22;30472;49.490;10.972;2023-06-22T14:29:00;35.00;99.90
44747;DHT22;30472;49.490;10.972;2023-06-22T14:31:25;34.90;99.90
44747;DHT22;30472;49.490;10.972;2023-06-22T14:33:51;34.70;99.90
44747;DHT22;30472;49.490;10.972;2023-06-22T14:36:17;34.80;99.90
44747;DHT22;30472;49.490;10.972;2023-06-22T14:38:43;35.20;99.80
44747;DHT22;30472;49.490;10.972;2023-06-22T14:41:09;35.20;99.70
44747;DHT22;30472;49.490;10.972;2023-06-22T14:43:34;34.80;99.90
44747;DHT22;30472;49.490;10.972;2023-06-22T14:46:00;34.40;99.90
44747;DHT22;30472;49.490;10.972;2023-06-22T14:48:26;34.30;99.90
44747;DHT22;30472;49.490;10.972;2023-06-22T14:50:51;34.40;99.80
44747;DHT22;30472;49.490;10.972;2023-06-22T14:53:19;34.70;99.90
44747;DHT22;30472;49.490;10.972;2023-06-22T14:55:44;35.30;99.60
44747;DHT22;30472;49.490;10.972;2023-06-22T14:58:10;35.20;98.60
44747;DHT22;30472;49.490;10.972;2023-06-22T15:00:36;35.20;97.90
44747;DHT22;30472;49.490;10.972;2023-06-22T15:03:02;35.00;98.40
44747;DHT22;30472;49.490;10.972;2023-06-22T15:05:30;35.10;98.50
44747;DHT22;30472;49.490;10.972;2023-06-22T15:07:56;35.40;98.60
44747;DHT22;30472;49.490;10.972;2023-06-22T15:10:21;35.40;98.60